»·PEaware :: DAL2140 KSLC-KSEA

DAL2140 :: KSLC-KSEA

FLIGHT INFORMATION

Flight Status: Arrived
Operator:
Delta Air Lines
More flights by this operator :: More flights under this callsign
Pilot: Joe P. (13940)
Aircraft: BOEING 737-800
(B738)
More flights by this aircraft type
Origin: KSLC Salt Lake City Intl
United States
Destination: KSEA Seattle-Tacoma Intl
United States
More flights between these airports :: More routes between these airports
Route: CGULL1 TWF BOI J163 BKE PDT CHINS3
File this flight plan on PilotEdge
Remarks: RMK / SIMBRIEF
Altitude:
(Current/Filed)
36,000ft
Speed:
(Current/Filed)
445kts
Departed: 23-Nov-19 10:16 AM
Arrived: 23-Nov-19 12:12 PM
Distance/Time
Traveled:
596nm/1:56
Distance/Time
To Go:
Arrived

Flight Plot

Page will automatically refresh every two minutes.

Flight plan parsing failed; only flown route is shown


Map Options




Map Legend


Flown Route
Filed Route
Departure Airport
Arrival Airport
Navaid (VOR, NDB)
Fix

Horizontal Profiles

Position Reports

Time Latitude Longitude Heading Altitude Ground
Speed
23-Nov-19 09:16 40.788128 -111.980914 283 4235ft 0kts
23-Nov-19 09:17 40.788128 -111.980914 283 4235ft 0kts
23-Nov-19 09:18 40.788128 -111.980914 283 4235ft 0kts
23-Nov-19 09:19 40.788128 -111.980914 283 4235ft 0kts
23-Nov-19 09:20 40.788128 -111.980914 283 4235ft 0kts
23-Nov-19 09:21 40.788128 -111.980914 283 4235ft 0kts
23-Nov-19 09:22 40.788128 -111.980914 283 4235ft 0kts
23-Nov-19 09:23 40.788128 -111.980914 283 4235ft 0kts
23-Nov-19 09:24 40.788128 -111.980914 283 4235ft 0kts
23-Nov-19 09:25 40.788128 -111.980914 283 4235ft 0kts
23-Nov-19 09:26 40.788128 -111.980914 283 4235ft 0kts
23-Nov-19 09:27 40.788128 -111.980914 283 4235ft 0kts
23-Nov-19 09:28 40.788128 -111.980914 283 4235ft 0kts
23-Nov-19 09:29 40.788128 -111.980914 283 4235ft 0kts
23-Nov-19 09:30 40.788128 -111.980914 283 4235ft 0kts
23-Nov-19 09:31 40.788128 -111.980914 283 4235ft 0kts
23-Nov-19 09:32 40.788128 -111.980914 283 4235ft 0kts
23-Nov-19 09:33 40.788128 -111.980914 283 4235ft 0kts
23-Nov-19 09:34 40.788128 -111.980914 283 4235ft 0kts
23-Nov-19 09:35 40.788128 -111.980914 283 4235ft 0kts
23-Nov-19 09:36 40.788128 -111.980914 283 4235ft 0kts
23-Nov-19 09:37 40.788128 -111.980914 283 4235ft 0kts
23-Nov-19 09:38 40.788128 -111.980914 283 4235ft 0kts
23-Nov-19 09:39 40.788128 -111.980914 283 4235ft 0kts
23-Nov-19 09:40 40.788128 -111.980914 283 4235ft 0kts
23-Nov-19 09:41 40.788128 -111.980914 283 4235ft 0kts
23-Nov-19 09:42 40.788128 -111.980914 283 4235ft 0kts
23-Nov-19 09:43 40.788128 -111.980914 283 4235ft 0kts
23-Nov-19 09:44 40.788128 -111.980914 283 4235ft 0kts
23-Nov-19 09:45 40.788128 -111.980914 283 4235ft 0kts
23-Nov-19 09:46 40.788128 -111.980914 283 4235ft 0kts
23-Nov-19 09:47 40.788128 -111.980914 283 4235ft 0kts
23-Nov-19 09:48 40.788128 -111.980914 283 4235ft 0kts
23-Nov-19 09:49 40.788128 -111.980914 283 4235ft 0kts
23-Nov-19 09:50 40.788128 -111.980914 283 4235ft 0kts
23-Nov-19 09:51 40.788128 -111.980914 283 4235ft 0kts
23-Nov-19 09:52 40.788128 -111.980914 283 4235ft 0kts
23-Nov-19 09:53 40.788128 -111.980914 283 4235ft 0kts
23-Nov-19 09:54 40.788128 -111.980914 283 4235ft 0kts
23-Nov-19 09:55 40.788128 -111.980914 283 4235ft 0kts
23-Nov-19 09:56 40.788128 -111.980914 283 4235ft 0kts
23-Nov-19 09:57 40.788128 -111.980914 283 4235ft 0kts
23-Nov-19 09:58 40.787877 -111.980319 336 4235ft 2kts
23-Nov-19 09:59 40.787538 -111.980389 23 4235ft 0kts
23-Nov-19 10:00 40.787538 -111.980389 23 4235ft 0kts
23-Nov-19 10:01 40.787538 -111.980389 23 4235ft 0kts
23-Nov-19 10:02 40.787538 -111.980389 23 4235ft 0kts
23-Nov-19 10:03 40.787539 -111.980388 23 4235ft 0kts
23-Nov-19 10:04 40.787541 -111.980387 23 4235ft 0kts
23-Nov-19 10:05 40.787542 -111.980387 23 4235ft 0kts
23-Nov-19 10:06 40.788441 -111.980003 13 4235ft 6kts
23-Nov-19 10:07 40.789664 -111.979094 82 4235ft 6kts
23-Nov-19 10:09 40.789736 -111.978009 85 4235ft 5kts
23-Nov-19 10:10 40.791393 -111.977178 345 4235ft 11kts
23-Nov-19 10:11 40.795633 -111.977808 356 4235ft 16kts
23-Nov-19 10:12 40.800308 -111.978332 354 4235ft 13kts
23-Nov-19 10:13 40.805057 -111.978882 355 4235ft 16kts
23-Nov-19 10:14 40.807522 -111.978665 83 4235ft 4kts
23-Nov-19 10:15 40.807412 -111.977418 111 4235ft 6kts
23-Nov-19 10:16 40.802864 -111.976343 174 4235ft 89kts
23-Nov-19 10:17 40.756610 -111.980852 224 5602ft 207kts
23-Nov-19 10:18 40.774137 -112.047896 307 7287ft 242kts
23-Nov-19 10:19 40.820163 -112.126713 307 9633ft 286kts
23-Nov-19 10:20 40.868716 -112.210621 307 10055ft 293kts
23-Nov-19 10:21 40.923260 -112.306319 307 12116ft 347kts
23-Nov-19 10:22 40.982283 -112.411461 307 15157ft 363kts
23-Nov-19 10:23 41.044449 -112.520679 307 17928ft 379kts
23-Nov-19 10:24 41.112745 -112.630625 315 20388ft 395kts
23-Nov-19 10:25 41.192147 -112.735582 315 22589ft 410kts
23-Nov-19 10:26 41.274117 -112.844586 315 24615ft 423kts
23-Nov-19 10:27 41.358387 -112.956684 316 26502ft 432kts
23-Nov-19 10:27 41.429745 -113.051347 316 27905ft 439kts
23-Nov-19 10:29 41.531323 -113.187296 317 29673ft 447kts
23-Nov-19 10:30 41.619468 -113.305914 317 31150ft 449kts
23-Nov-19 10:30 41.692215 -113.404177 317 32618ft 443kts
23-Nov-19 10:31 41.778091 -113.520617 317 34215ft 436kts
23-Nov-19 10:33 41.877158 -113.655532 316 35772ft 433kts
23-Nov-19 10:33 41.947322 -113.751467 316 36464ft 436kts
23-Nov-19 10:34 42.031929 -113.867577 316 36467ft 430kts
23-Nov-19 10:36 42.129832 -114.002521 316 36465ft 431kts
23-Nov-19 10:36 42.199648 -114.099136 316 36462ft 431kts
23-Nov-19 10:37 42.283346 -114.214708 316 36461ft 430kts
23-Nov-19 10:38 42.366634 -114.330716 316 36461ft 429kts
23-Nov-19 10:39 42.449180 -114.446436 316 36459ft 428kts
23-Nov-19 10:40 42.529773 -114.565529 313 36460ft 428kts
23-Nov-19 10:41 42.607485 -114.687234 313 36464ft 426kts
23-Nov-19 10:42 42.677324 -114.817316 311 36467ft 425kts
23-Nov-19 10:43 42.777112 -114.884286 6 36472ft 421kts
23-Nov-19 10:44 42.890419 -114.855985 343 36470ft 418kts
23-Nov-19 10:45 42.972281 -114.964021 305 36472ft 424kts
23-Nov-19 10:46 43.037201 -115.098667 305 36475ft 424kts
23-Nov-19 10:47 43.101577 -115.233649 305 36478ft 423kts
23-Nov-19 10:48 43.166036 -115.368309 305 36482ft 422kts
23-Nov-19 10:49 43.230300 -115.502958 305 36483ft 421kts
23-Nov-19 10:50 43.293828 -115.637330 305 36483ft 420kts
23-Nov-19 10:51 43.355474 -115.768404 305 36483ft 418kts
23-Nov-19 10:52 43.418742 -115.902612 305 36481ft 417kts
23-Nov-19 10:53 43.481363 -116.037486 305 36480ft 418kts
23-Nov-19 10:54 43.544757 -116.171403 310 36480ft 416kts
23-Nov-19 10:55 43.627069 -116.282576 319 36481ft 413kts
23-Nov-19 10:56 43.713097 -116.388391 319 36486ft 413kts
23-Nov-19 10:57 43.798794 -116.494098 319 36491ft 413kts
23-Nov-19 10:58 43.885183 -116.599833 320 36507ft 413kts
23-Nov-19 10:59 43.970915 -116.705836 320 36524ft 413kts
23-Nov-19 11:00 44.055925 -116.811508 319 36532ft 408kts
23-Nov-19 11:01 44.140716 -116.916972 319 36535ft 408kts
23-Nov-19 11:02 44.224889 -117.022438 319 36529ft 406kts
23-Nov-19 11:03 44.308765 -117.128337 319 36520ft 406kts
23-Nov-19 11:04 44.392275 -117.234003 319 36506ft 405kts
23-Nov-19 11:05 44.475605 -117.340024 319 36488ft 404kts
23-Nov-19 11:06 44.558755 -117.446273 319 36455ft 404kts
23-Nov-19 11:07 44.642216 -117.552048 320 36433ft 403kts
23-Nov-19 11:08 44.725514 -117.658976 319 36423ft 403kts
23-Nov-19 11:09 44.807830 -117.765441 319 36420ft 402kts
23-Nov-19 11:10 44.890185 -117.872037 319 36419ft 402kts
23-Nov-19 11:11 44.972510 -117.979107 319 36414ft 402kts
23-Nov-19 11:12 45.053854 -118.085412 319 36399ft 396kts
23-Nov-19 11:13 45.135119 -118.191085 319 36390ft 396kts
23-Nov-19 11:14 45.216145 -118.296964 318 36383ft 395kts
23-Nov-19 11:15 45.296615 -118.402897 318 36370ft 394kts
23-Nov-19 11:16 45.376891 -118.509063 318 36356ft 393kts
23-Nov-19 11:17 45.456823 -118.615210 318 36352ft 392kts
23-Nov-19 11:18 45.536652 -118.721056 318 36347ft 392kts
23-Nov-19 11:19 45.615836 -118.827435 318 36341ft 391kts
23-Nov-19 11:20 45.695054 -118.934285 316 36343ft 390kts
23-Nov-19 11:21 45.765895 -119.051758 312 36361ft 389kts
23-Nov-19 11:22 45.835357 -119.170512 312 36395ft 388kts
23-Nov-19 11:23 45.904531 -119.288592 312 36409ft 385kts
23-Nov-19 11:24 45.973841 -119.405849 312 36411ft 383kts
23-Nov-19 11:25 46.042468 -119.522386 311 36412ft 380kts
23-Nov-19 11:26 46.110065 -119.639125 311 36412ft 380kts
23-Nov-19 11:27 46.177265 -119.755560 311 35026ft 370kts
23-Nov-19 11:28 46.240511 -119.865410 311 32292ft 365kts
23-Nov-19 11:29 46.298977 -119.967077 312 32233ft 298kts
23-Nov-19 11:30 46.348709 -120.054191 311 31478ft 272kts
23-Nov-19 11:31 46.396874 -120.137749 311 29998ft 273kts
23-Nov-19 11:32 46.446577 -120.225166 309 27800ft 292kts
23-Nov-19 11:33 46.497895 -120.316103 308 26339ft 286kts
23-Nov-19 11:34 46.547836 -120.404764 307 24976ft 281kts
23-Nov-19 11:35 46.594114 -120.492881 301 24026ft 263kts
23-Nov-19 11:36 46.633576 -120.576414 301 23420ft 238kts
23-Nov-19 11:37 46.670594 -120.653487 301 22871ft 233kts
23-Nov-19 11:38 46.707617 -120.731615 300 22310ft 232kts
23-Nov-19 11:39 46.743952 -120.808638 300 21758ft 229kts
23-Nov-19 11:40 46.779983 -120.885154 300 21210ft 227kts
23-Nov-19 11:41 46.815585 -120.960823 300 20669ft 225kts
23-Nov-19 11:42 46.850828 -121.035909 300 20134ft 223kts
23-Nov-19 11:43 46.885558 -121.110237 299 19604ft 220kts
23-Nov-19 11:44 46.920335 -121.183265 300 19079ft 218kts
23-Nov-19 11:45 46.954457 -121.256315 299 18559ft 216kts
23-Nov-19 11:46 46.988167 -121.329100 299 18043ft 214kts
23-Nov-19 11:47 47.021234 -121.400716 299 17406ft 210kts
23-Nov-19 11:48 47.053769 -121.471231 299 16652ft 206kts
23-Nov-19 11:49 47.087938 -121.544983 300 16166ft 249kts
23-Nov-19 11:50 47.127909 -121.631648 299 15533ft 256kts
23-Nov-19 11:51 47.167404 -121.718089 299 14934ft 253kts
23-Nov-19 11:52 47.205305 -121.801153 299 14364ft 250kts
23-Nov-19 11:53 47.243519 -121.884194 299 13792ft 248kts
23-Nov-19 11:54 47.281221 -121.967290 299 13222ft 245kts
23-Nov-19 11:55 47.318942 -122.050887 299 12649ft 244kts
23-Nov-19 11:56 47.357003 -122.132809 313 12064ft 247kts
23-Nov-19 11:57 47.430013 -122.133613 0 12009ft 275kts
23-Nov-19 11:58 47.504452 -122.117783 0 11155ft 271kts
23-Nov-19 11:59 47.578136 -122.107664 359 9240ft 272kts
23-Nov-19 12:00 47.652595 -122.104241 0 7588ft 250kts
23-Nov-19 12:01 47.722445 -122.109588 335 5552ft 251kts
23-Nov-19 12:02 47.754554 -122.191136 277 4109ft 224kts
23-Nov-19 12:03 47.763929 -122.275040 267 3934ft 189kts
23-Nov-19 12:04 47.724526 -122.307670 178 4008ft 180kts
23-Nov-19 12:05 47.674923 -122.306126 179 3980ft 172kts
23-Nov-19 12:06 47.633152 -122.306300 180 3724ft 141kts
23-Nov-19 12:07 47.594498 -122.306619 180 2969ft 137kts
23-Nov-19 12:08 47.556503 -122.306954 179 2239ft 135kts
23-Nov-19 12:09 47.518617 -122.307288 179 1515ft 135kts
23-Nov-19 12:10 47.480446 -122.307621 179 786ft 135kts
23-Nov-19 12:11 47.448032 -122.307922 179 441ft 27kts
23-Nov-19 12:12 47.445761 -122.306576 134 441ft 0kts
23-Nov-19 12:13 47.445645 -122.306443 150 441ft 1kts
23-Nov-19 12:14 47.445047 -122.306325 178 441ft 0kts
23-Nov-19 12:15 47.443927 -122.306278 170 441ft 2kts
23-Nov-19 12:16 47.441839 -122.305417 180 441ft 13kts
23-Nov-19 12:17 47.438427 -122.305455 180 441ft 11kts
23-Nov-19 12:18 47.437295 -122.302572 80 441ft 12kts
23-Nov-19 12:19 47.437998 -122.298256 50 441ft 2kts
23-Nov-19 12:21 47.438110 -122.298066 49 441ft 0kts
23-Nov-19 12:22 47.438110 -122.298066 49 441ft 0kts
23-Nov-19 12:23 47.438110 -122.298066 49 441ft 0kts
23-Nov-19 12:24 47.438110 -122.298066 49 441ft 0kts

Navigation Log

Ident Type
Flight plan parsing failed, navigation log unavailable